Time;durP1;ratioP1;P1;durP2;ratioP2;P2;SDS_P1;SDS_P2;PMS_P1;PMS_P2;Temp;Humidity;BMP_temperature;BMP_pressure;BME280_temperature;BME280_humidity;BME280_pressure;Samples;Min_cycle;Max_cycle;Signal;HPM_P1;HPM_P2
2023/07/07 00:01:43;;;;;;;12.57;11.35;;;10.80;99.90;;;;;;6152967;23;20040;-74
2023/07/07 00:04:08;;;;;;;11.82;10.85;;;10.80;99.90;;;;;;6152960;23;20323;-74
2023/07/07 00:06:34;;;;;;;13.93;12.73;;;10.80;99.90;;;;;;6153055;23;20020;-75
2023/07/07 00:09:00;;;;;;;12.73;11.50;;;10.70;99.90;;;;;;6153330;23;20017;-74
2023/07/07 00:11:25;;;;;;;11.18;10.18;;;10.70;99.90;;;;;;6152959;23;20018;-74
2023/07/07 00:13:54;;;;;;;10.80;9.80;;;10.70;99.90;;;;;;6152144;23;20019;-74
2023/07/07 00:16:22;;;;;;;12.90;11.70;;;10.70;99.90;;;;;;6152673;23;20017;-74
2023/07/07 00:18:48;;;;;;;13.25;12.05;;;10.70;99.90;;;;;;6128599;23;20049;-74
2023/07/07 00:21:14;;;;;;;11.52;10.52;;;10.70;99.90;;;;;;6152762;23;20065;-75
2023/07/07 00:23:39;;;;;;;11.95;10.95;;;10.70;99.90;;;;;;6153168;23;20504;-74
2023/07/07 00:26:08;;;;;;;11.95;10.85;;;10.60;99.90;;;;;;6153009;23;20017;-74
2023/07/07 00:28:34;;;;;;;11.57;10.48;;;10.60;99.90;;;;;;6151771;23;20005;-74
2023/07/07 00:31:00;;;;;;;12.05;10.85;;;10.60;99.90;;;;;;6127796;23;20021;-74
2023/07/07 00:33:26;;;;;;;10.48;9.48;;;10.60;99.90;;;;;;6153137;23;20010;-74
2023/07/07 00:35:53;;;;;;;9.90;9.00;;;10.50;99.90;;;;;;6152879;23;20049;-74
2023/07/07 00:38:19;;;;;;;9.00;8.30;;;10.50;99.90;;;;;;6128479;23;20088;-74
2023/07/07 00:40:45;;;;;;;10.38;9.48;;;10.50;99.90;;;;;;6151733;23;20460;-74
2023/07/07 00:43:16;;;;;;;10.57;9.65;;;10.50;99.90;;;;;;6152331;23;20017;-75
2023/07/07 00:45:43;;;;;;;10.18;9.27;;;10.50;99.90;;;;;;6152934;23;20064;-74
2023/07/07 00:48:38;;;;;;;10.52;9.63;;;10.40;99.90;;;;;;6128409;23;20013;-74
2023/07/07 00:51:41;;;;;;;10.10;9.25;;;10.40;99.90;;;;;;6136499;23;20028;-74
2023/07/07 00:54:16;;;;;;;11.52;10.43;;;10.40;99.90;;;;;;6088421;23;20014;-74
2023/07/07 00:56:46;;;;;;;13.23;11.75;;;10.40;99.90;;;;;;6152393;23;20378;-74
2023/07/07 00:59:34;;;;;;;13.68;12.38;;;10.30;99.90;;;;;;6152845;23;20048;-74
2023/07/07 01:02:06;;;;;;;13.27;12.07;;;10.30;99.90;;;;;;6151995;23;20014;-75
2023/07/07 01:04:32;;;;;;;17.17;15.60;;;10.30;99.90;;;;;;6151938;23;20098;-74
2023/07/07 01:07:04;;;;;;;16.95;15.15;;;10.30;99.90;;;;;;6152100;23;20010;-74
2023/07/07 01:09:30;;;;;;;15.15;13.65;;;10.30;99.90;;;;;;6152148;23;20005;-74
2023/07/07 01:11:55;;;;;;;16.02;14.43;;;10.30;99.90;;;;;;6151691;23;20023;-74
2023/07/07 01:14:26;;;;;;;15.73;14.32;;;10.30;99.90;;;;;;6152487;23;20481;-74
2023/07/07 01:16:58;;;;;;;17.02;15.70;;;10.30;99.90;;;;;;6127419;23;20468;-74
2023/07/07 01:19:33;;;;;;;20.42;18.05;;;10.30;99.90;;;;;;6152807;23;20013;-74
2023/07/07 01:22:31;;;;;;;15.55;14.25;;;10.20;99.90;;;;;;6152112;23;20068;-74
2023/07/07 01:25:12;;;;;;;19.85;18.13;;;10.30;99.90;;;;;;6152667;23;20349;-74
2023/07/07 01:27:49;;;;;;;21.55;19.60;;;10.20;99.90;;;;;;6152321;23;20052;-74
2023/07/07 01:30:34;;;;;;;19.50;17.80;;;10.20;99.90;;;;;;6151331;23;20053;-74
2023/07/07 01:33:04;;;;;;;19.88;18.17;;;10.20;99.90;;;;;;6152126;23;20410;-74
2023/07/07 01:35:29;;;;;;;24.23;21.83;;;10.20;99.90;;;;;;6152622;23;20052;-74
2023/07/07 01:38:01;;;;;;;18.75;17.05;;;10.20;99.90;;;;;;6152381;23;20021;-74
2023/07/07 01:40:43;;;;;;;22.90;20.60;;;10.20;99.90;;;;;;6152038;23;20092;-74
2023/07/07 01:43:19;;;;;;;23.30;21.02;;;10.20;99.90;;;;;;6152040;23;20084;-74
2023/07/07 01:46:16;;;;;;;23.52;21.55;;;10.20;99.90;;;;;;6152228;23;20040;-74
2023/07/07 01:48:55;;;;;;;26.55;23.85;;;10.20;99.90;;;;;;6097302;23;20041;-74
2023/07/07 01:51:27;;;;;;;26.20;23.75;;;10.20;99.90;;;;;;6152136;23;20017;-74
2023/07/07 01:53:55;;;;;;;27.92;25.02;;;10.10;99.90;;;;;;6152099;23;20010;-74
2023/07/07 01:56:26;;;;;;;24.38;21.90;;;10.20;99.90;;;;;;6152233;23;20013;-74
2023/07/07 01:58:52;;;;;;;30.00;26.88;;;10.10;99.90;;;;;;6126984;23;20480;-74
2023/07/07 02:01:19;;;;;;;30.08;27.38;;;10.10;99.90;;;;;;6151792;23;20041;-74
2023/07/07 02:03:45;;;;;;;31.13;28.23;;;10.10;99.90;;;;;;6152369;23;20076;-74
2023/07/07 02:06:11;;;;;;;45.75;38.78;;;10.20;99.90;;;;;;6151893;23;20017;-74
2023/07/07 02:08:36;;;;;;;41.58;37.35;;;10.10;99.90;;;;;;6151192;23;20021;-74
2023/07/07 02:11:02;;;;;;;44.20;39.72;;;10.10;99.90;;;;;;6126468;23;20013;-74
2023/07/07 02:13:27;;;;;;;41.95;37.78;;;10.20;99.90;;;;;;6126239;23;20014;-74
2023/07/07 02:15:53;;;;;;;65.35;51.67;;;10.20;99.90;;;;;;6128745;23;20017;-74
2023/07/07 02:18:19;;;;;;;44.13;39.75;;;10.30;99.90;;;;;;6129793;23;20013;-74
2023/07/07 02:20:45;;;;;;;48.47;43.90;;;10.30;99.90;;;;;;6129346;23;20022;-74
2023/07/07 02:23:11;;;;;;;43.45;39.17;;;10.30;99.90;;;;;;6104445;23;20512;-74
2023/07/07 02:25:36;;;;;;;44.90;40.80;;;10.30;99.90;;;;;;6104868;23;20013;-74
2023/07/07 02:28:02;;;;;;;44.05;39.95;;;10.30;99.90;;;;;;6129395;23;20033;-74
2023/07/07 02:30:28;;;;;;;52.65;46.92;;;10.40;99.90;;;;;;6105369;23;20013;-74
2023/07/07 02:32:54;;;;;;;54.17;48.60;;;10.40;99.90;;;;;;6128949;23;20294;-74
2023/07/07 02:35:20;;;;;;;50.20;45.20;;;10.40;99.90;;;;;;6129226;23;20021;-74
2023/07/07 02:37:45;;;;;;;47.00;42.63;;;10.40;99.90;;;;;;6128814;23;20076;-73
2023/07/07 02:40:11;;;;;;;55.65;50.05;;;10.40;99.90;;;;;;6129139;23;20052;-74
2023/07/07 02:42:36;;;;;;;51.50;46.53;;;10.40;99.90;;;;;;6129600;23;20342;-74
2023/07/07 02:45:03;;;;;;;89.80;64.43;;;10.40;99.90;;;;;;6129537;23;20014;-74
2023/07/07 02:47:29;;;;;;;61.92;55.22;;;10.40;99.90;;;;;;6128812;23;20013;-74
2023/07/07 02:49:55;;;;;;;59.38;53.25;;;10.40;99.90;;;;;;6128949;23;20061;-74
2023/07/07 02:52:20;;;;;;;79.15;57.22;;;10.40;99.90;;;;;;6129509;23;20014;-74
2023/07/07 02:54:46;;;;;;;49.35;44.95;;;10.40;99.90;;;;;;6129441;23;20013;-74
2023/07/07 02:57:11;;;;;;;60.70;54.25;;;10.40;99.90;;;;;;6129144;23;20084;-74
2023/07/07 02:59:37;;;;;;;53.13;48.35;;;10.40;99.90;;;;;;6128978;23;20012;-74
2023/07/07 03:02:03;;;;;;;50.88;46.28;;;10.40;99.90;;;;;;6104994;23;20025;-74
2023/07/07 03:04:29;;;;;;;44.40;40.63;;;10.40;99.90;;;;;;6129105;23;20033;-74
2023/07/07 03:06:54;;;;;;;50.53;45.70;;;10.50;99.90;;;;;;6128760;23;20362;-74
2023/07/07 03:09:20;;;;;;;81.97;62.72;;;10.40;99.90;;;;;;6137076;23;20013;-74
2023/07/07 03:11:46;;;;;;;61.22;54.83;;;10.40;99.90;;;;;;6153572;23;20009;-74
2023/07/07 03:14:11;;;;;;;49.40;44.72;;;10.40;99.90;;;;;;6153061;23;20010;-74
2023/07/07 03:16:46;;;;;;;48.15;43.67;;;10.40;99.90;;;;;;6153576;23;20017;-74
2023/07/07 03:19:12;;;;;;;52.15;47.22;;;10.40;99.90;;;;;;6153338;23;20014;-74
2023/07/07 03:21:38;;;;;;;58.85;49.83;;;10.40;99.90;;;;;;6152188;23;20083;-74
2023/07/07 03:24:04;;;;;;;50.03;45.17;;;10.50;99.90;;;;;;6153571;23;20025;-74
2023/07/07 03:26:30;;;;;;;50.78;45.75;;;10.40;99.90;;;;;;6153377;23;20036;-74
2023/07/07 03:28:55;;;;;;;53.33;48.13;;;10.40;99.90;;;;;;6152899;23;20044;-74
2023/07/07 03:31:30;;;;;;;58.28;52.55;;;10.40;99.90;;;;;;6153026;23;20024;-74
2023/07/07 03:33:57;;;;;;;51.83;46.60;;;10.30;99.90;;;;;;6153364;23;20033;-74
2023/07/07 03:36:30;;;;;;;58.85;52.97;;;10.40;99.90;;;;;;6153522;23;20014;-74
2023/07/07 03:38:55;;;;;;;59.80;54.00;;;10.30;99.90;;;;;;6152566;23;20021;-74
2023/07/07 03:41:23;;;;;;;64.38;57.30;;;10.30;99.90;;;;;;6153288;23;20013;-74
2023/07/07 03:43:50;;;;;;;51.75;47.25;;;10.40;99.90;;;;;;6153651;23;20438;-74
2023/07/07 03:46:18;;;;;;;63.30;57.22;;;10.30;99.90;;;;;;6152411;23;20054;-74
2023/07/07 03:48:46;;;;;;;86.05;66.63;;;10.40;99.90;;;;;;6153603;23;20016;-74
2023/07/07 03:51:12;;;;;;;90.22;71.40;;;10.40;99.90;;;;;;6153530;23;20020;-74
2023/07/07 03:53:38;;;;;;;63.55;57.05;;;10.40;99.90;;;;;;6152993;23;20062;-74
2023/07/07 03:56:05;;;;;;;69.22;62.10;;;10.40;99.90;;;;;;6153311;23;20021;-74
2023/07/07 03:58:31;;;;;;;59.95;54.33;;;10.50;99.90;;;;;;6153614;23;20021;-74
2023/07/07 04:01:06;;;;;;;64.13;57.75;;;10.50;99.90;;;;;;6153019;23;20405;-74
2023/07/07 04:03:32;;;;;;;65.03;58.67;;;10.50;99.90;;;;;;6153557;23;20025;-74
2023/07/07 04:05:58;;;;;;;63.55;57.10;;;10.50;99.90;;;;;;6153287;23;20080;-74
2023/07/07 04:08:25;;;;;;;64.20;57.97;;;10.50;99.90;;;;;;6152819;23;20084;-74
2023/07/07 04:11:10;;;;;;;65.90;59.50;;;10.60;99.90;;;;;;6128057;23;20013;-73
2023/07/07 04:13:37;;;;;;;69.68;62.83;;;10.60;99.90;;;;;;6128511;23;20061;-73
2023/07/07 04:16:15;;;;;;;69.32;62.50;;;10.60;99.90;;;;;;6127187;23;20017;-74
2023/07/07 04:18:42;;;;;;;72.80;65.45;;;10.70;99.90;;;;;;6128573;23;20016;-74
2023/07/07 04:21:10;;;;;;;71.40;64.43;;;10.70;99.90;;;;;;6127508;23;20009;-74
2023/07/07 04:23:39;;;;;;;63.22;57.47;;;10.80;99.90;;;;;;6127751;23;20029;-74
2023/07/07 04:26:05;;;;;;;65.75;59.83;;;10.80;99.90;;;;;;6128408;23;20038;-74
2023/07/07 04:28:32;;;;;;;65.95;59.80;;;11.00;99.90;;;;;;6128158;23;20029;-74
2023/07/07 04:30:58;;;;;;;66.13;60.10;;;11.00;99.90;;;;;;6127576;23;20097;-74
2023/07/07 04:33:26;;;;;;;77.25;69.00;;;11.20;99.90;;;;;;6103706;23;20068;-74
2023/07/07 04:35:54;;;;;;;65.30;58.95;;;11.40;99.90;;;;;;6128145;23;20013;-74
2023/07/07 04:38:21;;;;;;;66.65;60.38;;;11.70;99.90;;;;;;6127324;23;20477;-74
2023/07/07 04:40:47;;;;;;;60.53;54.88;;;12.00;99.90;;;;;;6103500;23;20060;-74
2023/07/07 04:43:12;;;;;;;48.47;44.42;;;12.50;99.90;;;;;;6128458;23;20048;-74
2023/07/07 04:45:38;;;;;;;50.17;45.72;;;13.20;99.90;;;;;;6104161;23;20010;-74
2023/07/07 04:48:04;;;;;;;42.65;38.33;;;14.00;99.90;;;;;;6127319;23;20513;-74
2023/07/07 04:50:33;;;;;;;38.88;35.50;;;14.90;99.90;;;;;;6127496;23;20077;-74
2023/07/07 04:52:58;;;;;;;40.28;36.42;;;15.70;99.90;;;;;;6128318;23;20017;-74
2023/07/07 04:55:24;;;;;;;31.60;29.00;;;16.50;99.90;;;;;;6104011;23;20472;-74
2023/07/07 04:57:50;;;;;;;28.23;25.83;;;17.20;99.90;;;;;;6127290;23;20080;-75
2023/07/07 05:00:16;;;;;;;28.38;25.88;;;17.70;99.90;;;;;;6125438;23;20052;-75
2023/07/07 05:02:41;;;;;;;23.40;21.40;;;18.20;99.90;;;;;;6124682;23;20009;-75
2023/07/07 05:05:07;;;;;;;22.73;20.83;;;18.60;99.90;;;;;;6127872;23;20005;-74
2023/07/07 05:07:33;;;;;;;22.75;20.67;;;19.00;99.90;;;;;;6128121;23;20443;-74
2023/07/07 05:09:58;;;;;;;21.52;19.67;;;19.40;99.90;;;;;;6142688;23;20094;-74
2023/07/07 05:12:24;;;;;;;20.35;18.63;;;19.70;99.90;;;;;;6152717;23;20012;-74
2023/07/07 05:14:51;;;;;;;19.52;18.00;;;20.10;99.90;;;;;;6152878;23;20006;-74
2023/07/07 05:17:17;;;;;;;19.35;17.60;;;20.40;99.90;;;;;;6151850;23;20016;-74
2023/07/07 05:19:43;;;;;;;19.08;17.67;;;20.70;99.90;;;;;;6152133;23;20010;-74
2023/07/07 05:22:08;;;;;;;19.42;17.80;;;21.00;99.90;;;;;;6127605;23;20363;-74
2023/07/07 05:24:35;;;;;;;19.10;17.50;;;21.40;99.90;;;;;;6152593;23;20010;-74
2023/07/07 05:27:01;;;;;;;17.88;16.38;;;21.70;99.90;;;;;;6152124;23;20013;-75
2023/07/07 05:29:26;;;;;;;16.98;15.57;;;21.90;99.90;;;;;;6150956;23;20013;-75
2023/07/07 05:31:52;;;;;;;16.23;14.93;;;22.20;99.90;;;;;;6151923;23;20011;-75
2023/07/07 05:34:19;;;;;;;16.90;15.40;;;22.50;99.90;;;;;;6152517;23;20017;-75
2023/07/07 05:36:44;;;;;;;15.85;14.45;;;22.70;99.90;;;;;;6152381;23;20013;-75
2023/07/07 05:39:10;;;;;;;16.95;15.35;;;22.90;99.90;;;;;;6152182;23;20331;-75
2023/07/07 05:41:36;;;;;;;15.80;14.40;;;23.00;99.90;;;;;;6152514;23;20014;-75
2023/07/07 05:44:01;;;;;;;15.20;13.88;;;23.10;99.90;;;;;;6152011;23;20509;-75
2023/07/07 05:46:27;;;;;;;16.02;14.63;;;23.20;99.90;;;;;;6151923;23;20005;-75
2023/07/07 05:48:52;;;;;;;15.07;13.75;;;23.30;99.90;;;;;;6151927;23;20006;-75
2023/07/07 05:51:19;;;;;;;14.82;13.57;;;23.30;99.90;;;;;;6152536;23;20014;-75
2023/07/07 05:53:45;;;;;;;14.82;13.52;;;23.40;99.90;;;;;;6151327;23;20095;-75
2023/07/07 05:56:18;;;;;;;15.77;14.27;;;23.40;99.90;;;;;;6151927;23;20426;-75
2023/07/07 05:58:44;;;;;;;;;;;23.50;99.90;;;;;;6152560;23;20060;-75
2023/07/07 06:01:13;;;;;;;14.73;13.43;;;23.50;99.90;;;;;;6127146;23;19916;-75
2023/07/07 06:03:39;;;;;;;14.30;12.95;;;23.30;99.90;;;;;;6152080;23;20013;-75
2023/07/07 06:06:06;;;;;;;15.40;14.00;;;22.90;99.90;;;;;;6127673;23;20017;-75
2023/07/07 06:08:31;;;;;;;14.73;13.52;;;22.10;99.90;;;;;;6151922;23;20014;-75
2023/07/07 06:10:57;;;;;;;16.63;15.05;;;21.30;99.90;;;;;;6127345;23;20101;-75
2023/07/07 06:13:27;;;;;;;15.95;14.65;;;20.60;99.90;;;;;;6126610;23;20093;-75
2023/07/07 06:15:53;;;;;;;16.10;14.50;;;20.00;99.90;;;;;;6126848;23;20017;-75
2023/07/07 06:18:20;;;;;;;17.20;15.43;;;19.50;99.90;;;;;;6103411;23;20009;-75
2023/07/07 06:20:54;;;;;;;16.00;14.50;;;19.20;99.90;;;;;;6127020;23;20033;-75
2023/07/07 06:23:20;;;;;;;16.35;15.02;;;18.80;99.90;;;;;;6127079;23;20466;-75
2023/07/07 06:25:49;;;;;;;17.35;15.85;;;18.60;99.90;;;;;;6127424;23;20014;-75
2023/07/07 06:28:16;;;;;;;16.33;14.80;;;18.40;99.90;;;;;;6126952;23;20092;-75
2023/07/07 06:30:41;;;;;;;17.20;15.60;;;18.20;99.90;;;;;;6127745;23;20013;-75
2023/07/07 06:33:07;;;;;;;18.05;16.35;;;18.10;99.90;;;;;;6127370;23;20036;-75
2023/07/07 06:35:33;;;;;;;18.80;17.15;;;17.90;99.90;;;;;;6127764;23;20351;-75
2023/07/07 06:37:59;;;;;;;17.25;15.60;;;17.80;99.90;;;;;;6126704;23;20084;-75
2023/07/07 06:40:24;;;;;;;15.98;14.45;;;17.80;99.90;;;;;;6126371;23;20029;-75
2023/07/07 06:42:53;;;;;;;15.35;13.85;;;17.70;99.90;;;;;;6127124;23;20017;-75
2023/07/07 06:45:19;;;;;;;14.48;13.07;;;17.70;99.90;;;;;;6127332;23;20089;-74
2023/07/07 06:47:44;;;;;;;16.30;14.60;;;17.70;99.90;;;;;;6126458;23;20069;-74
2023/07/07 06:50:20;;;;;;;14.45;13.00;;;17.70;99.90;;;;;;6126666;23;20013;-74
2023/07/07 06:52:45;;;;;;;14.43;13.23;;;17.80;99.90;;;;;;6127564;23;20031;-74
2023/07/07 06:55:11;;;;;;;13.18;11.88;;;17.90;99.90;;;;;;6126968;23;20510;-74
2023/07/07 06:57:36;;;;;;;14.93;13.63;;;17.90;99.90;;;;;;6125277;23;20017;-73
2023/07/07 07:00:02;;;;;;;14.20;12.13;;;17.90;99.90;;;;;;6127083;23;20045;-73
2023/07/07 07:02:28;;;;;;;14.00;12.65;;;18.00;99.90;;;;;;6128861;23;20072;-73
2023/07/07 07:04:53;;;;;;;13.00;11.68;;;18.00;99.90;;;;;;6129234;23;20346;-73
2023/07/07 07:07:19;;;;;;;11.65;10.45;;;18.10;99.90;;;;;;6126988;23;20010;-74
2023/07/07 07:09:44;;;;;;;13.32;11.85;;;18.20;99.90;;;;;;6142323;23;20021;-74
2023/07/07 07:12:10;;;;;;;14.07;11.38;;;18.30;99.90;;;;;;6153349;23;20019;-74
2023/07/07 07:14:36;;;;;;;9.60;8.20;;;18.30;99.90;;;;;;6153861;23;20084;-74
2023/07/07 07:17:01;;;;;;;10.75;9.75;;;18.40;99.90;;;;;;6153696;23;20037;-74
2023/07/07 07:19:27;;;;;;;9.55;8.48;;;18.50;99.90;;;;;;6153828;23;20045;-74
2023/07/07 07:21:53;;;;;;;10.02;9.07;;;18.60;99.90;;;;;;6128990;23;20013;-74
2023/07/07 07:24:19;;;;;;;9.63;8.73;;;18.70;99.90;;;;;;6128726;23;20041;-74
2023/07/07 07:26:45;;;;;;;10.20;8.75;;;18.70;99.90;;;;;;6153365;23;20024;-74
2023/07/07 07:29:14;;;;;;;8.13;7.25;;;18.80;99.90;;;;;;6153167;23;20006;-74
2023/07/07 07:31:40;;;;;;;8.57;7.65;;;18.90;99.90;;;;;;6128573;23;20017;-74
2023/07/07 07:34:38;;;;;;;8.65;7.38;;;19.00;99.90;;;;;;6128808;23;20009;-74
2023/07/07 07:37:05;;;;;;;8.88;7.50;;;19.20;99.90;;;;;;6088682;23;20370;-74
2023/07/07 07:39:32;;;;;;;8.95;7.18;;;19.30;99.90;;;;;;6152310;23;20072;-74
2023/07/07 07:41:57;;;;;;;9.32;7.25;;;19.50;99.90;;;;;;6153033;23;20024;-74
2023/07/07 07:44:25;;;;;;;8.88;6.95;;;19.60;99.90;;;;;;6128666;23;20116;-74
2023/07/07 07:46:53;;;;;;;12.95;6.50;;;19.80;99.90;;;;;;6153142;23;20644;-75
2023/07/07 07:49:19;;;;;;;7.95;5.82;;;20.00;99.90;;;;;;6152173;23;20480;-74
2023/07/07 07:51:47;;;;;;;9.73;6.45;;;20.20;99.90;;;;;;6152877;23;20018;-75
2023/07/07 07:54:13;;;;;;;7.00;5.60;;;20.90;99.90;;;;;;6153067;23;20088;-76
2023/07/07 07:56:39;;;;;;;5.53;4.70;;;21.70;99.90;;;;;;6128738;23;20021;-76
2023/07/07 07:59:06;;;;;;;7.80;4.90;;;22.50;99.90;;;;;;6151728;23;20013;-76
2023/07/07 08:01:32;;;;;;;6.97;4.63;;;23.30;99.90;;;;;;6152330;23;20454;-76
2023/07/07 08:03:57;;;;;;;6.38;4.35;;;23.90;99.90;;;;;;6152535;23;20020;-76
2023/07/07 08:06:23;;;;;;;5.82;4.10;;;24.60;99.90;;;;;;6153357;23;20539;-76
2023/07/07 08:08:49;;;;;;;6.03;4.15;;;25.00;99.90;;;;;;6128149;23;20010;-76
2023/07/07 08:11:20;;;;;;;5.43;3.90;;;25.50;99.90;;;;;;6151577;23;20021;-76
2023/07/07 08:13:46;;;;;;;7.28;4.20;;;26.00;99.90;;;;;;6152548;23;20017;-76
2023/07/07 08:16:12;;;;;;;7.10;3.80;;;26.40;99.90;;;;;;6152322;23;20480;-76
2023/07/07 08:18:39;;;;;;;4.18;3.15;;;26.90;99.90;;;;;;6152413;23;20013;-77
2023/07/07 08:21:06;;;;;;;4.78;3.17;;;27.20;99.10;;;;;;6153646;23;20022;-77
2023/07/07 08:23:32;;;;;;;5.88;3.58;;;27.60;84.10;;;;;;6152743;23;20005;-77
2023/07/07 08:25:57;;;;;;;4.38;3.45;;;27.90;77.70;;;;;;6153138;23;20111;-77
2023/07/07 08:28:23;;;;;;;6.05;3.80;;;28.00;73.40;;;;;;6153311;23;20016;-77
2023/07/07 08:30:49;;;;;;;4.72;3.35;;;28.30;73.10;;;;;;6151839;23;20010;-76
2023/07/07 08:33:15;;;;;;;4.68;3.10;;;28.50;76.00;;;;;;6152000;23;20010;-75
2023/07/07 08:35:41;;;;;;;5.40;3.00;;;28.90;75.00;;;;;;6151639;23;20101;-75
2023/07/07 08:38:06;;;;;;;4.60;3.20;;;29.10;70.40;;;;;;6152509;23;20044;-75
2023/07/07 08:40:49;;;;;;;3.25;2.60;;;29.40;65.70;;;;;;6151872;23;20014;-75
2023/07/07 08:43:16;;;;;;;;;;;29.60;65.00;;;;;;6152924;23;20014;-74
2023/07/07 08:45:51;;;;;;;4.10;2.53;;;29.70;59.10;;;;;;6151846;23;20257;-74
2023/07/07 08:48:38;;;;;;;3.13;2.20;;;29.90;63.80;;;;;;6151932;23;20013;-75
2023/07/07 08:51:09;;;;;;;4.65;2.55;;;30.00;62.10;;;;;;6127248;23;20018;-75
2023/07/07 08:54:07;;;;;;;4.65;2.65;;;29.80;60.00;;;;;;6127533;23;20136;-75
2023/07/07 08:56:58;;;;;;;5.32;2.50;;;29.90;56.70;;;;;;6151629;23;20092;-77
2023/07/07 08:59:43;;;;;;;4.43;2.42;;;29.80;56.20;;;;;;6150368;23;20013;-75
2023/07/07 09:02:33;;;;;;;3.58;2.47;;;29.80;55.60;;;;;;6150819;23;20013;-75
2023/07/07 09:05:31;;;;;;;4.13;2.40;;;29.80;57.60;;;;;;6127245;23;20016;-75
2023/07/07 09:08:05;;;;;;;6.05;2.72;;;30.00;56.50;;;;;;6151050;23;20068;-75
2023/07/07 09:10:50;;;;;;;4.18;2.38;;;30.10;57.30;;;;;;6152740;23;20013;-75
2023/07/07 09:13:31;;;;;;;2.85;2.55;;;30.30;60.50;;;;;;6152978;23;20072;-75
2023/07/07 09:16:05;;;;;;;3.67;2.22;;;30.50;58.00;;;;;;6151691;23;20052;-75
2023/07/07 09:18:59;;;;;;;3.95;2.35;;;30.60;58.00;;;;;;6152711;23;20128;-75
2023/07/07 09:21:33;;;;;;;3.63;2.42;;;30.80;57.60;;;;;;6128173;23;20213;-75
2023/07/07 09:24:09;;;;;;;4.93;2.20;;;31.10;58.70;;;;;;6152605;23;20350;-75
2023/07/07 09:26:36;;;;;;;3.40;2.17;;;31.10;55.70;;;;;;6152573;23;20374;-75
2023/07/07 09:29:07;;;;;;;4.28;2.45;;;31.10;54.90;;;;;;6152141;23;20013;-75
2023/07/07 09:31:42;;;;;;;3.92;2.03;;;31.10;54.50;;;;;;6152940;23;20024;-75
2023/07/07 09:34:10;;;;;;;3.83;2.47;;;31.20;51.50;;;;;;6149627;23;20028;-76
2023/07/07 09:36:45;;;;;;;3.47;2.30;;;31.20;54.20;;;;;;6151063;23;20017;-76
2023/07/07 09:39:26;;;;;;;3.72;2.25;;;31.40;54.50;;;;;;6150790;23;20124;-76
2023/07/07 09:42:13;;;;;;;3.88;2.25;;;31.40;54.20;;;;;;6150920;23;20020;-76
2023/07/07 09:45:01;;;;;;;4.22;2.30;;;31.50;52.50;;;;;;6149818;23;20056;-75
2023/07/07 09:47:51;;;;;;;5.35;2.33;;;31.70;52.80;;;;;;6150207;23;20044;-77
2023/07/07 09:50:43;;;;;;;3.03;2.15;;;31.90;53.40;;;;;;6151587;23;20088;-76
2023/07/07 09:53:18;;;;;;;3.90;2.60;;;32.20;46.70;;;;;;6127533;23;20013;-75
2023/07/07 09:55:44;;;;;;;4.22;2.67;;;31.70;44.90;;;;;;6125459;23;20020;-75
2023/07/07 09:58:36;;;;;;;3.50;2.13;;;30.90;49.90;;;;;;6151545;23;20005;-75
2023/07/07 10:01:04;;;;;;;3.57;2.57;;;31.00;44.50;;;;;;6140141;23;20017;-75
2023/07/07 10:03:41;;;;;;;3.22;2.20;;;30.10;52.30;;;;;;6152363;23;20442;-75
2023/07/07 10:06:20;;;;;;;3.80;2.38;;;30.10;54.10;;;;;;6152041;23;20072;-75
2023/07/07 10:08:46;;;;;;;4.65;2.60;;;30.30;53.90;;;;;;6149641;23;20347;-78
2023/07/07 10:11:20;;;;;;;3.88;2.55;;;30.60;54.90;;;;;;6136106;23;20021;-78
2023/07/07 10:13:51;;;;;;;4.22;2.45;;;31.00;55.20;;;;;;6136508;23;20017;-78
2023/07/07 10:16:37;;;;;;;5.82;2.55;;;31.10;52.20;;;;;;6136772;23;20377;-79
2023/07/07 10:19:12;;;;;;;3.60;2.50;;;31.20;54.40;;;;;;6134919;23;20013;-77
2023/07/07 10:21:46;;;;;;;4.55;2.60;;;31.50;51.50;;;;;;6105934;23;20028;-79
2023/07/07 10:24:22;;;;;;;3.88;2.30;;;31.50;53.60;;;;;;6111914;23;20017;-80
2023/07/07 10:26:48;;;;;;;4.97;2.75;;;31.70;51.70;;;;;;6111546;23;20048;-80
2023/07/07 10:29:28;;;;;;;3.08;2.45;;;31.90;52.20;;;;;;6107243;23;20017;-80
2023/07/07 10:32:03;;;;;;;3.92;2.50;;;32.10;51.40;;;;;;6112568;23;20014;-80
2023/07/07 10:34:36;;;;;;;3.88;2.47;;;32.20;51.30;;;;;;6133771;23;20025;-81
2023/07/07 10:37:18;;;;;;;3.30;2.40;;;32.20;49.20;;;;;;6112005;23;20014;-80
2023/07/07 10:39:55;;;;;;;4.03;2.53;;;32.30;52.00;;;;;;6119302;23;20498;-80
2023/07/07 10:42:25;;;;;;;3.60;2.67;;;32.50;46.40;;;;;;6122355;23;20025;-80
2023/07/07 10:44:58;;;;;;;5.57;2.60;;;32.40;46.10;;;;;;6112203;23;20018;-80
2023/07/07 10:47:33;;;;;;;3.60;2.50;;;31.80;48.90;;;;;;6113035;23;20017;-81
2023/07/07 10:50:01;;;;;;;4.93;2.50;;;32.00;51.10;;;;;;6110576;23;20036;-80
2023/07/07 10:53:02;;;;;;;4.25;2.30;;;32.10;50.70;;;;;;6113041;23;20036;-80
2023/07/07 10:55:37;;;;;;;3.75;2.40;;;32.40;50.60;;;;;;6116875;23;20017;-80
2023/07/07 10:58:26;;;;;;;3.03;2.40;;;32.60;49.50;;;;;;6116472;23;20021;-80
2023/07/07 11:01:34;;;;;;;4.95;2.83;;;32.70;45.30;;;;;;6112199;23;20500;-80
2023/07/07 11:05:00;;;;;;;6.13;2.80;;;32.40;50.20;;;;;;6063696;23;20013;-80
2023/07/07 11:07:29;;;;;;;5.72;2.38;;;32.60;48.10;;;;;;5961785;23;20451;-78
2023/07/07 11:10:42;;;;;;;3.10;2.30;;;32.60;51.20;;;;;;5964866;23;20030;-79
2023/07/07 11:13:24;;;;;;;3.70;2.67;;;33.10;43.60;;;;;;6109869;23;20398;-80
2023/07/07 11:16:05;;;;;;;3.13;2.53;;;32.80;40.70;;;;;;6113469;23;20017;-78
2023/07/07 11:18:59;;;;;;;2.80;2.30;;;32.10;41.40;;;;;;6111730;23;20017;-79
2023/07/07 11:22:01;;;;;;;3.35;2.30;;;31.40;47.90;;;;;;6109322;23;20533;-78
2023/07/07 11:24:35;;;;;;;7.65;2.65;;;31.40;47.10;;;;;;6108965;23;20069;-78
2023/07/07 11:27:34;;;;;;;3.50;2.57;;;31.70;49.30;;;;;;6115288;23;20013;-78
2023/07/07 11:30:15;;;;;;;3.13;2.38;;;32.30;41.30;;;;;;6114186;23;20240;-78
2023/07/07 11:32:49;;;;;;;3.80;2.33;;;31.80;41.60;;;;;;6119778;23;20018;-79
2023/07/07 11:35:37;;;;;;;2.85;2.20;;;31.50;42.40;;;;;;6118655;23;20013;-79
2023/07/07 11:38:43;;;;;;;3.65;2.55;;;31.20;44.50;;;;;;6109070;23;20010;-78
2023/07/07 11:41:35;;;;;;;4.03;2.60;;;31.50;47.60;;;;;;6130896;23;20021;-78
2023/07/07 11:44:18;;;;;;;4.05;2.47;;;31.80;47.00;;;;;;6105710;23;20020;-78
2023/07/07 11:47:10;;;;;;;3.25;2.30;;;32.20;45.80;;;;;;6103920;23;20013;-77
2023/07/07 11:50:06;;;;;;;2.90;2.35;;;32.40;45.10;;;;;;6103366;23;20022;-78
2023/07/07 11:53:01;;;;;;;3.17;2.33;;;32.60;45.60;;;;;;6106048;23;20473;-78
2023/07/07 11:55:40;;;;;;;3.63;2.38;;;32.80;44.00;;;;;;6105064;23;20096;-78
2023/07/07 11:58:20;;;;;;;2.80;2.38;;;32.90;43.80;;;;;;6105793;23;20014;-78
2023/07/07 12:01:17;;;;;;;2.55;1.95;;;33.10;44.70;;;;;;6106183;23;20014;-77
2023/07/07 12:04:11;;;;;;;3.75;2.80;;;33.40;43.60;;;;;;6092738;23;20072;-81
2023/07/07 12:06:53;;;;;;;4.50;2.40;;;33.60;40.90;;;;;;6107746;23;20025;-78
2023/07/07 12:09:57;;;;;;;6.70;2.60;;;33.20;41.50;;;;;;6107574;23;20092;-79
2023/07/07 12:12:30;;;;;;;2.92;2.25;;;32.80;42.00;;;;;;6130320;23;20013;-79
2023/07/07 12:15:40;;;;;;;3.83;2.22;;;32.40;44.20;;;;;;6131293;23;20096;-79
2023/07/07 12:18:56;;;;;;;5.90;2.60;;;32.60;41.80;;;;;;6145081;23;20010;-79
2023/07/07 12:21:41;;;;;;;3.42;2.50;;;32.90;43.20;;;;;;6131053;23;20045;-79
2023/07/07 12:24:45;;;;;;;3.03;2.00;;;33.30;41.80;;;;;;6127615;23;20021;-79
2023/07/07 12:27:43;;;;;;;6.10;2.65;;;33.50;39.30;;;;;;6136968;23;20036;-79
2023/07/07 12:31:13;;;;;;;3.45;2.45;;;33.30;40.30;;;;;;6130841;23;20341;-79
2023/07/07 12:34:06;;;;;;;4.55;2.80;;;33.10;38.20;;;;;;6129713;23;20068;-79
2023/07/07 12:36:55;;;;;;;3.95;2.80;;;32.30;41.20;;;;;;6132789;23;20013;-79
2023/07/07 12:50:33;;;;;;;3.08;2.22;;;33.00;41.70;;;;;;6122969;23;20152;-79
2023/07/07 12:53:45;;;;;;;4.93;2.30;;;33.40;41.50;;;;;;6043123;23;20022;-79
2023/07/07 12:57:07;;;;;;;3.05;2.17;;;33.40;44.50;;;;;;6129136;23;20120;-78
2023/07/07 12:59:54;;;;;;;4.35;2.53;;;33.60;38.00;;;;;;6123034;23;20021;-79
2023/07/07 13:03:43;;;;;;;;;;;;;;;;;;;;;
2023/07/07 13:06:36;;;;;;;3.08;2.28;;;33.50;43.70;;;;;;5980447;23;20016;-79
2023/07/07 13:09:42;;;;;;;;;;;;;;;;;;;;;
2023/07/07 13:13:09;;;;;;;4.15;2.38;;;34.10;43.80;;;;;;6155271;23;20013;-80
2023/07/07 13:15:58;;;;;;;2.78;2.30;;;34.30;36.70;;;;;;6132195;23;20490;-79
2023/07/07 13:19:14;;;;;;;3.17;2.30;;;33.50;38.20;;;;;;6130895;23;20446;-79
2023/07/07 13:22:38;;;;;;;6.47;2.60;;;33.00;43.00;;;;;;6101396;23;20021;-79
2023/07/07 13:29:38;;;;;;;4.28;2.33;;;33.70;44.00;;;;;;6138080;23;20021;-78